sensor_id;sensor_type;location;lat;lon;timestamp;temperature;humidity
3312;DHT22;1668;49.648;8.570;2024-03-07T00:02:09;7.40;1.00
3312;DHT22;1668;49.648;8.570;2024-03-07T00:04:35;7.40;99.90
3312;DHT22;1668;49.648;8.570;2024-03-07T00:07:02;7.40;1.00
3312;DHT22;1668;49.648;8.570;2024-03-07T00:09:31;7.40;1.00
3312;DHT22;1668;49.648;8.570;2024-03-07T00:11:59;7.40;1.00
3312;DHT22;1668;49.648;8.570;2024-03-07T00:14:27;7.30;1.00
3312;DHT22;1668;49.648;8.570;2024-03-07T00:16:55;7.30;1.00
3312;DHT22;1668;49.648;8.570;2024-03-07T00:19:23;7.30;1.00
3312;DHT22;1668;49.648;8.570;2024-03-07T00:21:52;7.20;1.00
3312;DHT22;1668;49.648;8.570;2024-03-07T00:24:19;7.20;1.00
3312;DHT22;1668;49.648;8.570;2024-03-07T00:26:46;7.20;1.00
3312;DHT22;1668;49.648;8.570;2024-03-07T00:29:15;7.20;1.00
3312;DHT22;1668;49.648;8.570;2024-03-07T00:31:45;7.20;1.00
3312;DHT22;1668;49.648;8.570;2024-03-07T00:34:12;7.20;1.00
3312;DHT22;1668;49.648;8.570;2024-03-07T00:36:39;7.00;1.00
3312;DHT22;1668;49.648;8.570;2024-03-07T00:39:06;7.00;1.00
3312;DHT22;1668;49.648;8.570;2024-03-07T00:41:34;7.00;1.00
3312;DHT22;1668;49.648;8.570;2024-03-07T00:44:01;7.00;1.00
3312;DHT22;1668;49.648;8.570;2024-03-07T00:46:27;7.00;1.00
3312;DHT22;1668;49.648;8.570;2024-03-07T00:48:56;6.90;1.00
3312;DHT22;1668;49.648;8.570;2024-03-07T00:51:23;6.80;1.00
3312;DHT22;1668;49.648;8.570;2024-03-07T00:53:50;6.70;1.00
3312;DHT22;1668;49.648;8.570;2024-03-07T00:56:17;6.70;99.90
3312;DHT22;1668;49.648;8.570;2024-03-07T00:58:44;6.70;99.90
3312;DHT22;1668;49.648;8.570;2024-03-07T01:01:11;6.60;1.00
3312;DHT22;1668;49.648;8.570;2024-03-07T01:03:38;6.70;1.00
3312;DHT22;1668;49.648;8.570;2024-03-07T01:06:07;6.50;99.90
3312;DHT22;1668;49.648;8.570;2024-03-07T01:08:35;6.50;99.90
3312;DHT22;1668;49.648;8.570;2024-03-07T01:11:02;6.50;99.90
3312;DHT22;1668;49.648;8.570;2024-03-07T01:13:35;6.50;1.00
3312;DHT22;1668;49.648;8.570;2024-03-07T01:16:02;6.40;1.00
3312;DHT22;1668;49.648;8.570;2024-03-07T01:18:29;6.40;1.00
3312;DHT22;1668;49.648;8.570;2024-03-07T01:20:57;6.40;45.70
3312;DHT22;1668;49.648;8.570;2024-03-07T01:23:25;6.40;1.00
3312;DHT22;1668;49.648;8.570;2024-03-07T01:25:55;6.30;99.90
3312;DHT22;1668;49.648;8.570;2024-03-07T01:28:22;6.30;99.90
3312;DHT22;1668;49.648;8.570;2024-03-07T01:30:49;6.40;99.90
3312;DHT22;1668;49.648;8.570;2024-03-07T01:33:16;6.30;1.00
3312;DHT22;1668;49.648;8.570;2024-03-07T01:35:43;6.20;5.30
3312;DHT22;1668;49.648;8.570;2024-03-07T01:38:10;6.20;78.30
3312;DHT22;1668;49.648;8.570;2024-03-07T01:40:40;6.20;99.90
3312;DHT22;1668;49.648;8.570;2024-03-07T01:43:07;6.20;99.90
3312;DHT22;1668;49.648;8.570;2024-03-07T01:45:34;6.10;1.00
3312;DHT22;1668;49.648;8.570;2024-03-07T01:48:03;6.10;1.00
3312;DHT22;1668;49.648;8.570;2024-03-07T01:50:31;6.10;1.00
3312;DHT22;1668;49.648;8.570;2024-03-07T01:52:59;6.10;38.70
3312;DHT22;1668;49.648;8.570;2024-03-07T01:55:27;6.10;1.00
3312;DHT22;1668;49.648;8.570;2024-03-07T01:57:57;6.10;1.00
3312;DHT22;1668;49.648;8.570;2024-03-07T02:00:25;6.00;99.90
3312;DHT22;1668;49.648;8.570;2024-03-07T02:02:53;6.10;1.00
3312;DHT22;1668;49.648;8.570;2024-03-07T02:05:21;6.00;1.00
3312;DHT22;1668;49.648;8.570;2024-03-07T02:07:48;6.00;99.90
3312;DHT22;1668;49.648;8.570;2024-03-07T02:10:15;6.00;99.90
3312;DHT22;1668;49.648;8.570;2024-03-07T02:12:43;6.00;1.00
3312;DHT22;1668;49.648;8.570;2024-03-07T02:15:11;6.00;72.20
3312;DHT22;1668;49.648;8.570;2024-03-07T02:17:39;6.00;1.00
3312;DHT22;1668;49.648;8.570;2024-03-07T02:20:09;5.90;1.00
3312;DHT22;1668;49.648;8.570;2024-03-07T02:22:40;5.90;99.90
3312;DHT22;1668;49.648;8.570;2024-03-07T02:25:07;5.90;80.10
3312;DHT22;1668;49.648;8.570;2024-03-07T02:27:35;5.80;1.00
3312;DHT22;1668;49.648;8.570;2024-03-07T02:30:03;5.80;99.90
3312;DHT22;1668;49.648;8.570;2024-03-07T02:32:31;5.80;1.00
3312;DHT22;1668;49.648;8.570;2024-03-07T02:34:58;5.70;1.00
3312;DHT22;1668;49.648;8.570;2024-03-07T02:37:25;5.70;1.00
3312;DHT22;1668;49.648;8.570;2024-03-07T02:39:53;5.70;1.00
3312;DHT22;1668;49.648;8.570;2024-03-07T02:42:20;5.60;99.90
3312;DHT22;1668;49.648;8.570;2024-03-07T02:44:47;5.60;99.90
3312;DHT22;1668;49.648;8.570;2024-03-07T02:47:14;5.60;95.60
3312;DHT22;1668;49.648;8.570;2024-03-07T02:49:41;5.60;70.00
3312;DHT22;1668;49.648;8.570;2024-03-07T02:52:08;5.50;1.00
3312;DHT22;1668;49.648;8.570;2024-03-07T02:54:35;5.50;1.00
3312;DHT22;1668;49.648;8.570;2024-03-07T02:57:04;5.40;1.00
3312;DHT22;1668;49.648;8.570;2024-03-07T02:59:31;5.30;1.00
3312;DHT22;1668;49.648;8.570;2024-03-07T03:01:58;5.30;99.90
3312;DHT22;1668;49.648;8.570;2024-03-07T03:04:25;5.30;99.90
3312;DHT22;1668;49.648;8.570;2024-03-07T03:06:51;5.30;1.00
3312;DHT22;1668;49.648;8.570;2024-03-07T03:09:18;5.30;99.90
3312;DHT22;1668;49.648;8.570;2024-03-07T03:11:47;5.20;99.90
3312;DHT22;1668;49.648;8.570;2024-03-07T03:14:15;5.10;99.90
3312;DHT22;1668;49.648;8.570;2024-03-07T03:16:42;5.00;1.00
3312;DHT22;1668;49.648;8.570;2024-03-07T03:19:09;5.00;99.90
3312;DHT22;1668;49.648;8.570;2024-03-07T03:21:36;5.00;1.00
3312;DHT22;1668;49.648;8.570;2024-03-07T03:24:04;5.00;33.20
3312;DHT22;1668;49.648;8.570;2024-03-07T03:26:32;5.00;1.00
3312;DHT22;1668;49.648;8.570;2024-03-07T03:29:00;5.00;1.00
3312;DHT22;1668;49.648;8.570;2024-03-07T03:31:28;5.00;1.00
3312;DHT22;1668;49.648;8.570;2024-03-07T03:33:55;5.00;1.00
3312;DHT22;1668;49.648;8.570;2024-03-07T03:36:22;5.00;1.00
3312;DHT22;1668;49.648;8.570;2024-03-07T03:38:50;4.90;99.90
3312;DHT22;1668;49.648;8.570;2024-03-07T03:41:17;4.90;99.90
3312;DHT22;1668;49.648;8.570;2024-03-07T03:43:44;4.90;1.00
3312;DHT22;1668;49.648;8.570;2024-03-07T03:46:13;4.90;1.00
3312;DHT22;1668;49.648;8.570;2024-03-07T03:48:41;4.80;1.00
3312;DHT22;1668;49.648;8.570;2024-03-07T03:51:08;4.80;1.00
3312;DHT22;1668;49.648;8.570;2024-03-07T03:53:36;4.80;1.00
3312;DHT22;1668;49.648;8.570;2024-03-07T03:56:04;4.80;1.00
3312;DHT22;1668;49.648;8.570;2024-03-07T03:58:31;4.80;1.00
3312;DHT22;1668;49.648;8.570;2024-03-07T04:00:59;4.70;1.00
3312;DHT22;1668;49.648;8.570;2024-03-07T04:03:26;4.70;99.90
3312;DHT22;1668;49.648;8.570;2024-03-07T04:05:54;4.70;99.90
3312;DHT22;1668;49.648;8.570;2024-03-07T04:08:22;4.70;99.90
3312;DHT22;1668;49.648;8.570;2024-03-07T04:10:48;4.60;99.90
3312;DHT22;1668;49.648;8.570;2024-03-07T04:13:15;4.60;11.40
3312;DHT22;1668;49.648;8.570;2024-03-07T04:15:42;4.60;99.90
3312;DHT22;1668;49.648;8.570;2024-03-07T04:18:09;4.50;99.90
3312;DHT22;1668;49.648;8.570;2024-03-07T04:20:36;4.50;99.90
3312;DHT22;1668;49.648;8.570;2024-03-07T04:23:06;4.40;99.90
3312;DHT22;1668;49.648;8.570;2024-03-07T04:25:33;4.40;1.00
3312;DHT22;1668;49.648;8.570;2024-03-07T04:28:01;4.40;1.00
3312;DHT22;1668;49.648;8.570;2024-03-07T04:30:28;4.40;1.00
3312;DHT22;1668;49.648;8.570;2024-03-07T04:32:55;4.40;1.00
3312;DHT22;1668;49.648;8.570;2024-03-07T04:35:24;4.30;1.00
3312;DHT22;1668;49.648;8.570;2024-03-07T04:37:51;4.30;1.00
3312;DHT22;1668;49.648;8.570;2024-03-07T04:40:21;4.20;1.00
3312;DHT22;1668;49.648;8.570;2024-03-07T04:42:49;4.20;8.10
3312;DHT22;1668;49.648;8.570;2024-03-07T04:45:16;4.20;88.30
3312;DHT22;1668;49.648;8.570;2024-03-07T04:47:44;4.20;99.90
3312;DHT22;1668;49.648;8.570;2024-03-07T04:50:12;4.10;99.90
3312;DHT22;1668;49.648;8.570;2024-03-07T04:52:42;4.10;1.00
3312;DHT22;1668;49.648;8.570;2024-03-07T04:55:11;4.10;1.00
3312;DHT22;1668;49.648;8.570;2024-03-07T04:57:40;4.10;1.00
3312;DHT22;1668;49.648;8.570;2024-03-07T05:00:08;4.00;99.90
3312;DHT22;1668;49.648;8.570;2024-03-07T05:02:39;4.00;99.90
3312;DHT22;1668;49.648;8.570;2024-03-07T05:05:06;4.00;99.90
3312;DHT22;1668;49.648;8.570;2024-03-07T05:07:33;3.90;99.90
3312;DHT22;1668;49.648;8.570;2024-03-07T05:10:01;3.90;64.60
3312;DHT22;1668;49.648;8.570;2024-03-07T05:12:30;3.90;1.00
3312;DHT22;1668;49.648;8.570;2024-03-07T05:14:58;3.90;99.90
3312;DHT22;1668;49.648;8.570;2024-03-07T05:17:25;3.90;79.80
3312;DHT22;1668;49.648;8.570;2024-03-07T05:19:52;3.90;99.90
3312;DHT22;1668;49.648;8.570;2024-03-07T05:22:19;3.80;99.90
3312;DHT22;1668;49.648;8.570;2024-03-07T05:24:50;3.80;99.90
3312;DHT22;1668;49.648;8.570;2024-03-07T05:27:17;3.80;1.00
3312;DHT22;1668;49.648;8.570;2024-03-07T05:29:44;3.70;1.00
3312;DHT22;1668;49.648;8.570;2024-03-07T05:32:22;3.80;1.00
3312;DHT22;1668;49.648;8.570;2024-03-07T05:34:50;3.70;1.00
3312;DHT22;1668;49.648;8.570;2024-03-07T05:37:17;3.70;99.90
3312;DHT22;1668;49.648;8.570;2024-03-07T05:39:45;3.70;99.90
3312;DHT22;1668;49.648;8.570;2024-03-07T05:42:12;3.60;37.10
3312;DHT22;1668;49.648;8.570;2024-03-07T05:44:40;3.60;1.00
3312;DHT22;1668;49.648;8.570;2024-03-07T05:47:08;3.60;1.00
3312;DHT22;1668;49.648;8.570;2024-03-07T05:49:37;3.50;1.00
3312;DHT22;1668;49.648;8.570;2024-03-07T05:52:04;3.40;1.00
3312;DHT22;1668;49.648;8.570;2024-03-07T05:54:32;3.40;1.00
3312;DHT22;1668;49.648;8.570;2024-03-07T05:56:59;3.40;99.90
3312;DHT22;1668;49.648;8.570;2024-03-07T05:59:26;3.30;99.90
3312;DHT22;1668;49.648;8.570;2024-03-07T06:01:54;3.30;1.00
3312;DHT22;1668;49.648;8.570;2024-03-07T06:04:21;3.30;1.00
3312;DHT22;1668;49.648;8.570;2024-03-07T06:06:49;3.30;1.00
3312;DHT22;1668;49.648;8.570;2024-03-07T06:09:16;3.30;1.00
3312;DHT22;1668;49.648;8.570;2024-03-07T06:11:47;3.30;1.00
3312;DHT22;1668;49.648;8.570;2024-03-07T06:14:14;3.20;1.00
3312;DHT22;1668;49.648;8.570;2024-03-07T06:16:42;3.20;1.00
3312;DHT22;1668;49.648;8.570;2024-03-07T06:19:09;3.20;1.00
3312;DHT22;1668;49.648;8.570;2024-03-07T06:21:37;3.20;99.90
3312;DHT22;1668;49.648;8.570;2024-03-07T06:24:08;3.10;38.50
3312;DHT22;1668;49.648;8.570;2024-03-07T06:26:37;3.10;99.90
3312;DHT22;1668;49.648;8.570;2024-03-07T06:29:13;3.10;99.90
3312;DHT22;1668;49.648;8.570;2024-03-07T06:31:41;3.10;1.00
3312;DHT22;1668;49.648;8.570;2024-03-07T06:34:08;3.10;1.00
3312;DHT22;1668;49.648;8.570;2024-03-07T06:36:35;3.00;1.00
3312;DHT22;1668;49.648;8.570;2024-03-07T06:39:02;3.00;1.00
3312;DHT22;1668;49.648;8.570;2024-03-07T06:41:32;3.10;1.00
3312;DHT22;1668;49.648;8.570;2024-03-07T06:43:59;3.10;1.00
3312;DHT22;1668;49.648;8.570;2024-03-07T06:46:26;3.10;1.00
3312;DHT22;1668;49.648;8.570;2024-03-07T06:48:53;3.10;1.00
3312;DHT22;1668;49.648;8.570;2024-03-07T06:51:21;3.10;1.00
3312;DHT22;1668;49.648;8.570;2024-03-07T06:53:50;3.20;1.00
3312;DHT22;1668;49.648;8.570;2024-03-07T06:56:17;3.10;1.00
3312;DHT22;1668;49.648;8.570;2024-03-07T06:58:45;3.20;1.00
3312;DHT22;1668;49.648;8.570;2024-03-07T07:01:14;3.20;1.00
3312;DHT22;1668;49.648;8.570;2024-03-07T07:03:42;3.10;99.90
3312;DHT22;1668;49.648;8.570;2024-03-07T07:06:10;3.20;99.90
3312;DHT22;1668;49.648;8.570;2024-03-07T07:08:37;3.20;1.00
3312;DHT22;1668;49.648;8.570;2024-03-07T07:11:04;3.20;99.90
3312;DHT22;1668;49.648;8.570;2024-03-07T07:13:32;3.20;99.90
3312;DHT22;1668;49.648;8.570;2024-03-07T07:16:00;3.20;1.00
3312;DHT22;1668;49.648;8.570;2024-03-07T07:18:27;3.20;99.90
3312;DHT22;1668;49.648;8.570;2024-03-07T07:20:54;3.20;1.00
3312;DHT22;1668;49.648;8.570;2024-03-07T07:23:22;3.20;1.00
3312;DHT22;1668;49.648;8.570;2024-03-07T07:25:49;3.20;1.00
3312;DHT22;1668;49.648;8.570;2024-03-07T07:28:16;3.30;1.00
3312;DHT22;1668;49.648;8.570;2024-03-07T07:30:43;3.30;1.00
3312;DHT22;1668;49.648;8.570;2024-03-07T07:33:12;3.30;1.00
3312;DHT22;1668;49.648;8.570;2024-03-07T07:35:40;3.30;99.90
3312;DHT22;1668;49.648;8.570;2024-03-07T07:38:07;3.30;1.00
3312;DHT22;1668;49.648;8.570;2024-03-07T07:40:36;3.30;99.90
3312;DHT22;1668;49.648;8.570;2024-03-07T07:43:03;3.30;1.00
3312;DHT22;1668;49.648;8.570;2024-03-07T07:45:30;3.40;7.30
3312;DHT22;1668;49.648;8.570;2024-03-07T07:47:57;3.40;1.00
3312;DHT22;1668;49.648;8.570;2024-03-07T07:50:26;3.40;99.90
3312;DHT22;1668;49.648;8.570;2024-03-07T07:52:56;3.40;1.00
3312;DHT22;1668;49.648;8.570;2024-03-07T07:55:24;3.40;1.00
3312;DHT22;1668;49.648;8.570;2024-03-07T07:57:53;3.50;99.90
3312;DHT22;1668;49.648;8.570;2024-03-07T08:00:21;3.50;99.90
3312;DHT22;1668;49.648;8.570;2024-03-07T08:02:50;3.50;1.00
3312;DHT22;1668;49.648;8.570;2024-03-07T08:05:17;3.60;99.90
3312;DHT22;1668;49.648;8.570;2024-03-07T08:07:46;3.60;1.00
3312;DHT22;1668;49.648;8.570;2024-03-07T08:10:14;3.60;99.90
3312;DHT22;1668;49.648;8.570;2024-03-07T08:12:40;3.70;99.90
3312;DHT22;1668;49.648;8.570;2024-03-07T08:15:11;3.70;29.50
3312;DHT22;1668;49.648;8.570;2024-03-07T08:17:40;3.80;1.00
3312;DHT22;1668;49.648;8.570;2024-03-07T08:20:13;3.80;1.00
3312;DHT22;1668;49.648;8.570;2024-03-07T08:22:41;3.90;18.80
3312;DHT22;1668;49.648;8.570;2024-03-07T08:25:10;3.90;99.90
3312;DHT22;1668;49.648;8.570;2024-03-07T08:27:38;3.90;1.00
3312;DHT22;1668;49.648;8.570;2024-03-07T08:30:07;4.00;1.00
3312;DHT22;1668;49.648;8.570;2024-03-07T08:32:38;4.10;93.50
3312;DHT22;1668;49.648;8.570;2024-03-07T08:35:06;4.20;1.00
3312;DHT22;1668;49.648;8.570;2024-03-07T08:37:35;4.30;99.90
3312;DHT22;1668;49.648;8.570;2024-03-07T08:40:03;4.40;99.90
3312;DHT22;1668;49.648;8.570;2024-03-07T08:42:34;4.50;92.10
3312;DHT22;1668;49.648;8.570;2024-03-07T08:45:01;4.60;1.00
3312;DHT22;1668;49.648;8.570;2024-03-07T08:47:30;4.60;99.90
3312;DHT22;1668;49.648;8.570;2024-03-07T08:49:57;4.60;22.00
3312;DHT22;1668;49.648;8.570;2024-03-07T08:52:56;4.70;52.90
3312;DHT22;1668;49.648;8.570;2024-03-07T08:56:04;4.80;99.90
3312;DHT22;1668;49.648;8.570;2024-03-07T08:58:51;4.90;99.90
3312;DHT22;1668;49.648;8.570;2024-03-07T09:01:18;5.00;1.00
3312;DHT22;1668;49.648;8.570;2024-03-07T09:03:45;5.10;37.80
3312;DHT22;1668;49.648;8.570;2024-03-07T09:06:12;5.10;1.00
3312;DHT22;1668;49.648;8.570;2024-03-07T09:08:41;5.20;1.00
3312;DHT22;1668;49.648;8.570;2024-03-07T09:11:08;5.20;1.00
3312;DHT22;1668;49.648;8.570;2024-03-07T09:13:35;5.30;1.00
3312;DHT22;1668;49.648;8.570;2024-03-07T09:16:04;5.40;1.00
3312;DHT22;1668;49.648;8.570;2024-03-07T09:18:31;5.40;1.00
3312;DHT22;1668;49.648;8.570;2024-03-07T09:20:57;5.50;1.00
3312;DHT22;1668;49.648;8.570;2024-03-07T09:23:25;5.50;1.00
3312;DHT22;1668;49.648;8.570;2024-03-07T09:25:52;5.50;1.00
3312;DHT22;1668;49.648;8.570;2024-03-07T09:28:19;5.60;1.00
3312;DHT22;1668;49.648;8.570;2024-03-07T09:30:46;5.60;1.00
3312;DHT22;1668;49.648;8.570;2024-03-07T09:33:14;5.70;1.00
3312;DHT22;1668;49.648;8.570;2024-03-07T09:35:45;5.70;1.00
3312;DHT22;1668;49.648;8.570;2024-03-07T09:38:11;5.70;1.00
3312;DHT22;1668;49.648;8.570;2024-03-07T09:40:38;5.80;1.00
3312;DHT22;1668;49.648;8.570;2024-03-07T09:43:06;5.80;1.00
3312;DHT22;1668;49.648;8.570;2024-03-07T09:45:37;5.80;1.00
3312;DHT22;1668;49.648;8.570;2024-03-07T09:48:06;5.90;1.00
3312;DHT22;1668;49.648;8.570;2024-03-07T09:50:36;5.90;1.00
3312;DHT22;1668;49.648;8.570;2024-03-07T09:53:04;5.90;1.00
3312;DHT22;1668;49.648;8.570;2024-03-07T09:55:31;6.00;1.00
3312;DHT22;1668;49.648;8.570;2024-03-07T09:58:00;6.00;1.00
3312;DHT22;1668;49.648;8.570;2024-03-07T10:00:27;6.10;1.00
3312;DHT22;1668;49.648;8.570;2024-03-07T10:02:58;6.10;1.00
3312;DHT22;1668;49.648;8.570;2024-03-07T10:05:27;6.20;1.00
3312;DHT22;1668;49.648;8.570;2024-03-07T10:07:56;6.20;1.00
3312;DHT22;1668;49.648;8.570;2024-03-07T10:10:23;6.30;1.00
3312;DHT22;1668;49.648;8.570;2024-03-07T10:12:52;6.40;1.00
3312;DHT22;1668;49.648;8.570;2024-03-07T10:15:19;6.40;1.00
3312;DHT22;1668;49.648;8.570;2024-03-07T10:17:47;6.50;1.00
3312;DHT22;1668;49.648;8.570;2024-03-07T10:20:16;6.50;99.90
3312;DHT22;1668;49.648;8.570;2024-03-07T10:22:46;6.60;1.00
3312;DHT22;1668;49.648;8.570;2024-03-07T10:25:17;6.60;1.00
3312;DHT22;1668;49.648;8.570;2024-03-07T10:27:45;6.80;99.90
3312;DHT22;1668;49.648;8.570;2024-03-07T10:30:14;6.80;99.90
3312;DHT22;1668;49.648;8.570;2024-03-07T10:32:46;6.90;99.90
3312;DHT22;1668;49.648;8.570;2024-03-07T10:35:13;6.90;99.90
3312;DHT22;1668;49.648;8.570;2024-03-07T10:37:41;6.90;99.90
3312;DHT22;1668;49.648;8.570;2024-03-07T10:40:12;7.00;99.90
3312;DHT22;1668;49.648;8.570;2024-03-07T10:42:46;7.20;99.90
3312;DHT22;1668;49.648;8.570;2024-03-07T10:45:17;7.30;99.90
3312;DHT22;1668;49.648;8.570;2024-03-07T10:47:45;7.40;99.90
3312;DHT22;1668;49.648;8.570;2024-03-07T10:50:20;7.50;99.90
3312;DHT22;1668;49.648;8.570;2024-03-07T10:52:59;7.50;99.90
3312;DHT22;1668;49.648;8.570;2024-03-07T10:55:33;7.50;99.90
3312;DHT22;1668;49.648;8.570;2024-03-07T10:58:08;7.60;99.90
3312;DHT22;1668;49.648;8.570;2024-03-07T11:00:38;7.70;99.90
3312;DHT22;1668;49.648;8.570;2024-03-07T11:03:11;7.80;99.90
3312;DHT22;1668;49.648;8.570;2024-03-07T11:05:39;7.80;99.90
3312;DHT22;1668;49.648;8.570;2024-03-07T11:08:10;7.80;99.90
3312;DHT22;1668;49.648;8.570;2024-03-07T11:10:38;7.90;99.90
3312;DHT22;1668;49.648;8.570;2024-03-07T11:13:08;8.00;99.90
3312;DHT22;1668;49.648;8.570;2024-03-07T11:15:39;8.10;99.90
3312;DHT22;1668;49.648;8.570;2024-03-07T11:18:07;8.20;99.90
3312;DHT22;1668;49.648;8.570;2024-03-07T11:20:37;8.30;99.90
3312;DHT22;1668;49.648;8.570;2024-03-07T11:23:24;8.40;99.90
3312;DHT22;1668;49.648;8.570;2024-03-07T11:25:55;8.60;99.90
3312;DHT22;1668;49.648;8.570;2024-03-07T11:28:29;8.70;99.90
3312;DHT22;1668;49.648;8.570;2024-03-07T11:31:15;8.80;99.90
3312;DHT22;1668;49.648;8.570;2024-03-07T11:33:42;8.80;99.90
3312;DHT22;1668;49.648;8.570;2024-03-07T11:36:10;8.80;99.90
3312;DHT22;1668;49.648;8.570;2024-03-07T11:38:37;8.80;1.00
3312;DHT22;1668;49.648;8.570;2024-03-07T11:41:04;8.90;99.90
3312;DHT22;1668;49.648;8.570;2024-03-07T11:43:40;8.90;99.90
3312;DHT22;1668;49.648;8.570;2024-03-07T11:46:08;8.90;99.90
3312;DHT22;1668;49.648;8.570;2024-03-07T11:48:39;9.00;1.00
3312;DHT22;1668;49.648;8.570;2024-03-07T11:51:06;9.10;1.00
3312;DHT22;1668;49.648;8.570;2024-03-07T11:53:38;9.10;1.00
3312;DHT22;1668;49.648;8.570;2024-03-07T11:56:05;9.20;1.00
3312;DHT22;1668;49.648;8.570;2024-03-07T11:58:38;9.20;1.00
3312;DHT22;1668;49.648;8.570;2024-03-07T12:01:07;9.20;1.00
3312;DHT22;1668;49.648;8.570;2024-03-07T12:03:36;9.20;1.00
3312;DHT22;1668;49.648;8.570;2024-03-07T12:06:03;9.30;1.00
3312;DHT22;1668;49.648;8.570;2024-03-07T12:08:30;9.30;1.00
3312;DHT22;1668;49.648;8.570;2024-03-07T12:10:57;9.30;1.00
3312;DHT22;1668;49.648;8.570;2024-03-07T12:13:25;9.40;1.00
3312;DHT22;1668;49.648;8.570;2024-03-07T12:15:54;9.40;1.00
3312;DHT22;1668;49.648;8.570;2024-03-07T12:18:24;9.50;1.00
3312;DHT22;1668;49.648;8.570;2024-03-07T12:20:52;9.70;1.00
3312;DHT22;1668;49.648;8.570;2024-03-07T12:23:22;9.70;99.90
3312;DHT22;1668;49.648;8.570;2024-03-07T12:25:59;9.80;99.90
3312;DHT22;1668;49.648;8.570;2024-03-07T12:28:26;9.80;99.90
3312;DHT22;1668;49.648;8.570;2024-03-07T12:30:57;9.90;99.90
3312;DHT22;1668;49.648;8.570;2024-03-07T12:33:29;9.90;99.90
3312;DHT22;1668;49.648;8.570;2024-03-07T12:35:56;9.90;99.90
3312;DHT22;1668;49.648;8.570;2024-03-07T12:38:31;9.90;99.90
3312;DHT22;1668;49.648;8.570;2024-03-07T12:41:05;9.90;99.90
3312;DHT22;1668;49.648;8.570;2024-03-07T12:43:33;9.90;99.90
3312;DHT22;1668;49.648;8.570;2024-03-07T12:46:01;9.90;99.90
3312;DHT22;1668;49.648;8.570;2024-03-07T12:48:31;9.90;99.90
3312;DHT22;1668;49.648;8.570;2024-03-07T12:50:58;9.90;99.90
3312;DHT22;1668;49.648;8.570;2024-03-07T12:53:25;9.90;99.90
3312;DHT22;1668;49.648;8.570;2024-03-07T12:55:52;10.00;99.90
3312;DHT22;1668;49.648;8.570;2024-03-07T12:58:19;10.00;99.90
3312;DHT22;1668;49.648;8.570;2024-03-07T13:00:47;10.00;1.00
3312;DHT22;1668;49.648;8.570;2024-03-07T13:03:15;10.00;1.00
3312;DHT22;1668;49.648;8.570;2024-03-07T13:05:42;10.00;1.00
3312;DHT22;1668;49.648;8.570;2024-03-07T13:08:08;10.10;99.90
3312;DHT22;1668;49.648;8.570;2024-03-07T13:10:37;10.20;99.90
3312;DHT22;1668;49.648;8.570;2024-03-07T13:13:05;10.40;1.00
3312;DHT22;1668;49.648;8.570;2024-03-07T13:15:31;10.60;1.00
3312;DHT22;1668;49.648;8.570;2024-03-07T13:17:58;10.60;1.00
3312;DHT22;1668;49.648;8.570;2024-03-07T13:20:26;10.60;1.00
3312;DHT22;1668;49.648;8.570;2024-03-07T13:22:54;10.60;1.00
3312;DHT22;1668;49.648;8.570;2024-03-07T13:25:24;10.50;1.00
3312;DHT22;1668;49.648;8.570;2024-03-07T13:27:54;10.50;1.00
3312;DHT22;1668;49.648;8.570;2024-03-07T13:30:22;10.50;1.00
3312;DHT22;1668;49.648;8.570;2024-03-07T13:32:53;10.50;99.90
3312;DHT22;1668;49.648;8.570;2024-03-07T13:35:21;10.50;99.90
3312;DHT22;1668;49.648;8.570;2024-03-07T13:37:50;10.50;1.00
3312;DHT22;1668;49.648;8.570;2024-03-07T13:40:17;10.50;99.90
3312;DHT22;1668;49.648;8.570;2024-03-07T13:42:51;10.40;1.00
3312;DHT22;1668;49.648;8.570;2024-03-07T13:45:23;10.40;1.00
3312;DHT22;1668;49.648;8.570;2024-03-07T13:47:52;10.40;1.00
3312;DHT22;1668;49.648;8.570;2024-03-07T13:50:21;10.40;1.00
3312;DHT22;1668;49.648;8.570;2024-03-07T13:52:51;10.40;1.00
3312;DHT22;1668;49.648;8.570;2024-03-07T13:55:46;10.40;99.90
3312;DHT22;1668;49.648;8.570;2024-03-07T13:58:33;10.30;99.90
3312;DHT22;1668;49.648;8.570;2024-03-07T14:01:17;10.30;1.00
3312;DHT22;1668;49.648;8.570;2024-03-07T14:07:14;10.30;1.00
3312;DHT22;1668;49.648;8.570;2024-03-07T14:10:13;10.30;1.00
3312;DHT22;1668;49.648;8.570;2024-03-07T14:12:57;10.30;1.00
3312;DHT22;1668;49.648;8.570;2024-03-07T14:15:57;10.30;99.90
3312;DHT22;1668;49.648;8.570;2024-03-07T14:21:52;10.30;99.90
3312;DHT22;1668;49.648;8.570;2024-03-07T14:27:30;10.30;1.00
3312;DHT22;1668;49.648;8.570;2024-03-07T14:30:18;10.30;99.90
3312;DHT22;1668;49.648;8.570;2024-03-07T14:32:49;10.30;1.00
3312;DHT22;1668;49.648;8.570;2024-03-07T14:35:22;10.20;99.90
3312;DHT22;1668;49.648;8.570;2024-03-07T14:37:54;10.20;99.90
3312;DHT22;1668;49.648;8.570;2024-03-07T14:40:22;10.20;99.90
3312;DHT22;1668;49.648;8.570;2024-03-07T14:42:55;10.20;99.90
3312;DHT22;1668;49.648;8.570;2024-03-07T14:45:28;10.20;99.90
3312;DHT22;1668;49.648;8.570;2024-03-07T14:47:56;10.20;99.90
3312;DHT22;1668;49.648;8.570;2024-03-07T14:50:25;10.20;99.90
3312;DHT22;1668;49.648;8.570;2024-03-07T14:52:54;10.20;99.90
3312;DHT22;1668;49.648;8.570;2024-03-07T14:55:21;10.20;99.90
3312;DHT22;1668;49.648;8.570;2024-03-07T14:57:48;10.20;99.90
3312;DHT22;1668;49.648;8.570;2024-03-07T15:00:17;10.20;99.90
3312;DHT22;1668;49.648;8.570;2024-03-07T15:02:46;10.20;99.90
3312;DHT22;1668;49.648;8.570;2024-03-07T15:05:14;10.20;99.90
3312;DHT22;1668;49.648;8.570;2024-03-07T15:07:42;10.10;1.00
3312;DHT22;1668;49.648;8.570;2024-03-07T15:10:16;10.10;1.00
3312;DHT22;1668;49.648;8.570;2024-03-07T15:12:46;10.10;99.90
3312;DHT22;1668;49.648;8.570;2024-03-07T15:15:13;10.20;99.90
3312;DHT22;1668;49.648;8.570;2024-03-07T15:17:42;10.10;1.00
3312;DHT22;1668;49.648;8.570;2024-03-07T15:20:11;10.10;99.90
3312;DHT22;1668;49.648;8.570;2024-03-07T15:22:48;10.10;99.90
3312;DHT22;1668;49.648;8.570;2024-03-07T15:25:16;10.10;99.90
3312;DHT22;1668;49.648;8.570;2024-03-07T15:27:43;10.10;99.90
3312;DHT22;1668;49.648;8.570;2024-03-07T15:30:10;10.10;1.00
3312;DHT22;1668;49.648;8.570;2024-03-07T15:32:41;10.10;99.90
3312;DHT22;1668;49.648;8.570;2024-03-07T15:35:08;10.10;99.90
3312;DHT22;1668;49.648;8.570;2024-03-07T15:37:38;10.00;99.90
3312;DHT22;1668;49.648;8.570;2024-03-07T15:40:07;10.00;99.90
3312;DHT22;1668;49.648;8.570;2024-03-07T15:42:38;10.00;99.90
3312;DHT22;1668;49.648;8.570;2024-03-07T15:45:06;9.90;99.90
3312;DHT22;1668;49.648;8.570;2024-03-07T15:48:14;9.90;99.90
3312;DHT22;1668;49.648;8.570;2024-03-07T15:51:04;9.90;99.90
3312;DHT22;1668;49.648;8.570;2024-03-07T15:54:33;9.90;99.90
3312;DHT22;1668;49.648;8.570;2024-03-07T16:00:30;9.80;99.90
3312;DHT22;1668;49.648;8.570;2024-03-07T16:02:59;9.80;99.90
3312;DHT22;1668;49.648;8.570;2024-03-07T16:05:29;9.80;99.90
3312;DHT22;1668;49.648;8.570;2024-03-07T16:07:59;9.70;99.90
3312;DHT22;1668;49.648;8.570;2024-03-07T16:10:28;9.70;99.90
3312;DHT22;1668;49.648;8.570;2024-03-07T16:12:56;9.60;99.90
3312;DHT22;1668;49.648;8.570;2024-03-07T16:15:24;9.50;99.90
3312;DHT22;1668;49.648;8.570;2024-03-07T16:17:51;9.50;99.90
3312;DHT22;1668;49.648;8.570;2024-03-07T16:20:20;9.50;99.90
3312;DHT22;1668;49.648;8.570;2024-03-07T16:22:48;9.40;99.90
3312;DHT22;1668;49.648;8.570;2024-03-07T16:25:17;9.40;99.90
3312;DHT22;1668;49.648;8.570;2024-03-07T16:27:46;9.40;99.90
3312;DHT22;1668;49.648;8.570;2024-03-07T16:30:14;9.40;99.90
3312;DHT22;1668;49.648;8.570;2024-03-07T16:32:43;9.40;99.90
3312;DHT22;1668;49.648;8.570;2024-03-07T16:35:13;9.40;99.90
3312;DHT22;1668;49.648;8.570;2024-03-07T16:37:42;9.30;99.90
3312;DHT22;1668;49.648;8.570;2024-03-07T16:40:12;9.30;99.90
3312;DHT22;1668;49.648;8.570;2024-03-07T16:42:42;9.30;99.90
3312;DHT22;1668;49.648;8.570;2024-03-07T16:45:10;9.30;99.90
3312;DHT22;1668;49.648;8.570;2024-03-07T16:47:39;9.30;99.90
3312;DHT22;1668;49.648;8.570;2024-03-07T16:50:07;9.20;99.90
3312;DHT22;1668;49.648;8.570;2024-03-07T16:52:35;9.20;99.90